Time;durP1;ratioP1;P1;durP2;ratioP2;P2;SDS_P1;SDS_P2;PMS_P1;PMS_P2;Temp;Humidity;BMP_temperature;BMP_pressure;BME280_temperature;BME280_humidity;BME280_pressure;Samples;Min_cycle;Max_cycle;Signal;HPM_P1;HPM_P2
2023/06/19 00:01:15;;;;;;;12.40;10.50;;;;;;;22.44;46.08;99135.06;107385;1254;59246;-40
2023/06/19 00:03:43;;;;;;;12.20;10.40;;;;;;;22.47;46.70;99133.40;107337;1257;73031;-40
2023/06/19 00:06:12;;;;;;;13.10;10.30;;;;;;;22.49;46.63;99135.93;107365;1257;66197;-40
2023/06/19 00:08:42;;;;;;;12.10;10.50;;;;;;;22.49;45.86;99130.70;107323;1257;71103;-40
2023/06/19 00:11:10;;;;;;;13.50;10.70;;;;;;;22.50;45.49;99129.66;107340;1257;59582;-40
2023/06/19 00:13:38;;;;;;;12.70;10.10;;;;;;;22.50;45.47;99127.66;107336;1257;59978;-40
2023/06/19 00:16:05;;;;;;;12.00;10.20;;;;;;;22.51;44.88;99123.61;107348;1254;73026;-40
2023/06/19 00:18:39;;;;;;;12.60;10.60;;;;;;;22.52;44.81;99121.85;107364;1257;67013;-40
2023/06/19 00:21:08;;;;;;;12.70;10.90;;;;;;;22.52;45.17;99120.59;107346;1257;73360;-41
2023/06/19 00:23:36;;;;;;;14.00;11.00;;;;;;;22.52;44.87;99122.40;107326;1256;59672;-40
2023/06/19 00:26:03;;;;;;;14.40;11.70;;;;;;;22.52;45.17;99119.09;107339;1257;60003;-40
2023/06/19 00:28:31;;;;;;;15.20;12.40;;;;;;;22.51;47.63;99126.45;107328;1257;72164;-40
2023/06/19 00:31:00;;;;;;;14.60;13.10;;;;;;;22.48;48.71;99127.98;107329;1256;66596;-40
2023/06/19 00:33:29;;;;;;;14.70;13.20;;;;;;;22.44;49.67;99128.67;107264;1260;72764;-40
2023/06/19 00:35:56;;;;;;;17.40;14.00;;;;;;;22.40;50.20;99137.26;107230;1256;59601;-40
2023/06/19 00:38:24;;;;;;;15.40;13.50;;;;;;;22.35;50.41;99137.17;107279;1256;60069;-39
2023/06/19 00:40:52;;;;;;;17.20;14.80;;;;;;;22.30;50.99;99139.95;107137;1256;72069;-39
2023/06/19 00:43:19;;;;;;;16.60;14.70;;;;;;;22.24;51.27;99145.09;107287;1257;68079;-39
2023/06/19 00:45:47;;;;;;;20.60;14.70;;;;;;;22.17;51.21;99145.16;107322;1255;72749;-41
2023/06/19 00:48:14;;;;;;;17.90;14.20;;;;;;;22.04;51.54;99140.61;107112;1257;60471;-41
2023/06/19 00:50:42;;;;;;;15.90;14.20;;;;;;;21.91;52.40;99140.19;107051;1257;60504;-41
2023/06/19 00:53:10;;;;;;;17.50;14.90;;;;;;;21.81;52.73;99139.93;107080;1262;73808;-40
2023/06/19 00:55:38;;;;;;;17.70;14.40;;;;;;;21.75;53.65;99137.45;107314;1256;66619;-40
2023/06/19 00:58:05;;;;;;;18.70;14.90;;;;;;;21.69;54.39;99136.89;107254;1257;71932;-41
2023/06/19 01:00:33;;;;;;;15.80;14.20;;;;;;;21.67;54.63;99139.57;107157;1257;60565;-40
2023/06/19 01:03:01;;;;;;;16.70;15.00;;;;;;;21.64;54.85;99141.45;107237;1257;60083;-40
2023/06/19 01:05:29;;;;;;;17.90;15.10;;;;;;;21.62;54.72;99146.67;107234;1257;73316;-40
2023/06/19 01:08:00;;;;;;;16.90;15.10;;;;;;;21.59;54.66;99147.85;107336;1256;67716;-39
2023/06/19 01:10:32;;;;;;;16.80;15.10;;;;;;;21.56;54.73;99146.35;107249;1257;72790;-40
2023/06/19 01:13:47;;;;;;;18.00;15.40;;;;;;;21.53;54.93;99144.80;107258;1262;60424;-40
2023/06/19 01:16:16;;;;;;;18.30;14.90;;;;;;;21.47;55.22;99151.20;106830;1262;60333;-40
2023/06/19 01:18:44;;;;;;;19.80;14.50;;;;;;;21.38;54.47;99155.73;107263;1257;72901;-40
2023/06/19 01:21:16;;;;;;;14.80;13.10;;;;;;;21.31;54.01;99150.95;107328;1257;66286;-40
2023/06/19 01:23:43;;;;;;;;;;;;;;;21.25;53.87;99149.13;107319;1257;72660;-40
2023/06/19 01:26:11;;;;;;;16.50;13.10;;;;;;;21.16;53.75;99148.67;107257;1254;60426;-40
2023/06/19 01:28:41;;;;;;;16.00;13.40;;;;;;;21.07;53.41;99144.23;107286;1256;60517;-40
2023/06/19 01:31:11;;;;;;;;;;;;;;;21.05;53.08;99146.64;107283;1254;73930;-40
2023/06/19 01:33:40;;;;;;;15.70;13.50;;;;;;;20.97;53.18;99149.71;107313;1259;66583;-40
2023/06/19 01:36:07;;;;;;;15.30;12.20;;;;;;;20.90;53.26;99144.95;107253;1257;72684;-41
2023/06/19 01:38:35;;;;;;;14.90;12.10;;;;;;;20.88;52.96;99142.62;107133;1257;60407;-41
2023/06/19 01:41:03;;;;;;;15.60;12.50;;;;;;;20.87;53.02;99143.67;106819;1264;60613;-41
2023/06/19 01:43:30;;;;;;;18.30;12.20;;;;;;;20.85;52.85;99145.46;107004;1256;73851;-41
2023/06/19 01:45:59;;;;;;;16.00;12.40;;;;;;;20.83;52.89;99145.44;107163;1257;66595;-38
2023/06/19 01:48:27;;;;;;;14.60;12.30;;;;;;;20.80;53.36;99143.45;107262;1257;72680;-39
2023/06/19 01:50:54;;;;;;;15.20;12.50;;;;;;;20.78;53.17;99145.48;107158;1255;60247;-40
2023/06/19 01:53:22;;;;;;;15.40;11.90;;;;;;;20.78;53.49;99150.37;107248;1260;60191;-40
2023/06/19 01:55:50;;;;;;;15.80;12.80;;;;;;;20.76;53.46;99149.70;107320;1260;72534;-41
2023/06/19 01:58:17;;;;;;;14.60;12.70;;;;;;;20.71;53.93;99151.89;107095;1257;66796;-40
2023/06/19 02:00:46;;;;;;;16.10;13.10;;;;;;;20.62;54.31;99155.58;107072;1257;72699;-40
2023/06/19 02:03:14;;;;;;;15.40;13.20;;;;;;;20.56;54.73;99155.89;107294;1257;60387;-40
2023/06/19 02:05:43;;;;;;;15.40;12.90;;;;;;;20.52;55.37;99154.64;107280;1253;60343;-41
2023/06/19 02:08:11;;;;;;;15.90;14.10;;;;;;;20.51;55.82;99155.45;107230;1259;73986;-40
2023/06/19 02:10:39;;;;;;;16.60;14.10;;;;;;;20.52;56.26;99159.85;107204;1256;67595;-40
2023/06/19 02:13:07;;;;;;;17.90;13.40;;;;;;;20.53;56.71;99158.71;107297;1256;72574;-42
2023/06/19 02:15:42;;;;;;;17.90;13.70;;;;;;;20.53;56.72;99158.79;107169;1262;62477;-41
2023/06/19 02:18:12;;;;;;;14.70;12.60;;;;;;;20.54;57.00;99159.79;107285;1259;60460;-42
2023/06/19 02:20:42;;;;;;;16.10;13.30;;;;;;;20.56;57.09;99160.85;107249;1262;72852;-42
2023/06/19 02:23:10;;;;;;;15.60;13.40;;;;;;;20.57;57.38;99159.95;107260;1256;68282;-41
2023/06/19 02:25:39;;;;;;;18.30;13.10;;;;;;;20.57;57.27;99162.94;107290;1259;72344;-42
2023/06/19 02:28:09;;;;;;;15.20;13.30;;;;;;;20.56;57.74;99164.46;107082;1263;60447;-41
2023/06/19 02:30:37;;;;;;;17.20;13.30;;;;;;;20.55;57.93;99160.32;107258;1260;60269;-41
2023/06/19 02:33:06;;;;;;;15.50;13.40;;;;;;;20.55;57.66;99157.48;107267;1254;72887;-40
2023/06/19 02:35:37;;;;;;;17.30;14.00;;;;;;;20.56;58.04;99152.51;107158;1257;66189;-40
2023/06/19 02:38:04;;;;;;;15.00;12.50;;;;;;;20.56;59.11;99157.92;107254;1259;72698;-40
2023/06/19 02:40:37;;;;;;;19.60;13.10;;;;;;;20.62;59.03;99161.56;107359;1257;60426;-41
2023/06/19 02:44:17;;;;;;;14.00;11.40;;;;;;;20.69;58.10;99164.99;107413;1259;60421;-42
2023/06/19 02:46:54;;;;;;;14.70;11.60;;;;;;;20.75;56.96;99157.53;107209;1261;72637;-41
2023/06/19 02:49:21;;;;;;;13.30;11.90;;;;;;;20.78;56.66;99158.06;107110;1259;68089;-39
2023/06/19 02:51:49;;;;;;;17.40;12.00;;;;;;;20.89;56.17;99160.33;107024;1260;72694;-39
2023/06/19 02:54:16;;;;;;;15.70;11.70;;;;;;;20.97;55.75;99161.99;107223;1260;60896;-40
2023/06/19 02:56:44;;;;;;;14.50;11.70;;;;;;;21.05;55.68;99160.45;107132;1258;60299;-40
2023/06/19 02:59:11;;;;;;;15.70;11.90;;;;;;;21.10;55.40;99156.76;107219;1260;73874;-40
2023/06/19 03:01:39;;;;;;;14.00;11.50;;;;;;;21.16;54.87;99154.42;107285;1258;67905;-40
2023/06/19 03:04:07;;;;;;;13.60;11.70;;;;;;;21.21;55.27;99153.42;107257;1256;72758;-40
2023/06/19 03:06:39;;;;;;;13.20;11.90;;;;;;;21.25;55.12;99155.59;107217;1260;60133;-39
2023/06/19 03:09:11;;;;;;;13.90;12.40;;;;;;;21.29;54.47;99156.11;107233;1256;59685;-40
2023/06/19 03:11:40;;;;;;;16.60;12.30;;;;;;;21.34;54.39;99155.65;107282;1257;72591;-40
2023/06/19 03:14:08;;;;;;;14.10;11.70;;;;;;;21.37;54.73;99150.05;107295;1259;67559;-40
2023/06/19 03:16:36;;;;;;;16.00;11.70;;;;;;;21.40;54.77;99153.43;107325;1258;72651;-40
2023/06/19 03:19:04;;;;;;;16.10;11.90;;;;;;;21.43;54.75;99154.39;107259;1258;59317;-40
2023/06/19 03:21:35;;;;;;;15.60;11.60;;;;;;;21.45;55.16;99157.00;107269;1259;59241;-40
2023/06/19 03:24:07;;;;;;;;;;;;;;;21.47;55.11;99159.73;107504;1258;72647;-41
2023/06/19 03:26:39;;;;;;;16.40;11.90;;;;;;;21.44;55.01;99157.97;107225;1254;67796;-41
2023/06/19 03:29:11;;;;;;;13.80;11.60;;;;;;;21.42;54.54;99157.15;107218;1259;74990;-40
2023/06/19 03:32:15;;;;;;;14.00;11.80;;;;;;;21.49;54.21;99157.43;107242;1257;62480;-39
2023/06/19 03:34:43;;;;;;;15.80;12.10;;;;;;;21.51;54.87;99155.95;107237;1259;60376;-39
2023/06/19 03:37:12;;;;;;;16.60;12.70;;;;;;;21.55;55.65;99161.21;107199;1259;73952;-40
2023/06/19 03:39:40;;;;;;;14.30;12.20;;;;;;;21.57;55.42;99158.80;107202;1257;65800;-40
2023/06/19 03:42:09;;;;;;;16.00;12.10;;;;;;;21.59;55.17;99158.64;107221;1257;71397;-39
2023/06/19 03:44:36;;;;;;;15.10;12.40;;;;;;;21.61;55.23;99158.52;107194;1257;60438;-39
2023/06/19 03:47:05;;;;;;;14.00;12.00;;;;;;;21.63;55.61;99159.16;107219;1260;60530;-39
2023/06/19 03:49:32;;;;;;;14.10;12.40;;;;;;;21.65;55.49;99156.35;107127;1260;73894;-39
2023/06/19 03:52:00;;;;;;;16.00;12.20;;;;;;;21.66;55.23;99155.59;107188;1260;67585;-39
2023/06/19 03:54:28;;;;;;;14.00;12.30;;;;;;;21.68;55.33;99158.06;107250;1254;72717;-40
2023/06/19 03:56:56;;;;;;;14.00;12.50;;;;;;;21.71;55.54;99156.97;107268;1260;60383;-40
2023/06/19 03:59:23;;;;;;;17.00;12.90;;;;;;;21.74;55.58;99158.91;107186;1254;60354;-40
2023/06/19 04:01:51;;;;;;;14.70;12.90;;;;;;;21.77;55.95;99160.23;107246;1258;72542;-40
2023/06/19 04:04:19;;;;;;;15.20;12.60;;;;;;;21.79;56.45;99157.34;107213;1256;67895;-40
2023/06/19 04:06:47;;;;;;;16.00;13.10;;;;;;;21.82;56.69;99155.77;107156;1260;72702;-40
2023/06/19 04:09:14;;;;;;;15.10;12.80;;;;;;;21.84;56.58;99154.27;107158;1256;60507;-40
2023/06/19 04:11:42;;;;;;;15.40;13.40;;;;;;;21.87;56.34;99155.71;107096;1261;60325;-39
2023/06/19 04:14:09;;;;;;;17.20;13.60;;;;;;;21.88;56.03;99152.98;107182;1260;72621;-40
2023/06/19 04:16:37;;;;;;;15.50;12.90;;;;;;;21.89;55.50;99151.91;107273;1260;66424;-39
2023/06/19 04:19:14;;;;;;;14.90;12.70;;;;;;;21.93;55.20;99151.91;107299;1257;71411;-40
2023/06/19 04:21:50;;;;;;;15.10;13.00;;;;;;;21.95;54.64;99152.93;107302;1258;60196;-41
2023/06/19 04:24:17;;;;;;;15.80;13.30;;;;;;;21.99;54.90;99155.67;107299;1259;59282;-40
2023/06/19 04:26:45;;;;;;;14.90;13.30;;;;;;;22.03;54.67;99156.25;107299;1255;72534;-40
2023/06/19 04:29:17;;;;;;;15.20;12.80;;;;;;;22.07;54.77;99157.31;107138;1256;67592;-41
2023/06/19 04:31:46;;;;;;;14.20;12.60;;;;;;;22.12;54.85;99162.36;107161;1260;72752;-40
2023/06/19 04:34:15;;;;;;;15.20;12.70;;;;;;;22.15;54.77;99167.48;107321;1260;60430;-41
2023/06/19 04:36:44;;;;;;;17.80;12.70;;;;;;;22.20;54.65;99171.05;107305;1255;60597;-40
2023/06/19 04:39:13;;;;;;;14.30;12.70;;;;;;;22.24;54.52;99171.63;107335;1255;73929;-41
2023/06/19 04:41:45;;;;;;;13.70;12.30;;;;;;;22.27;54.70;99163.38;107388;1254;67415;-41
2023/06/19 04:44:14;;;;;;;15.20;12.40;;;;;;;22.32;54.71;99160.61;107238;1260;72433;-39
2023/06/19 04:46:43;;;;;;;18.00;12.80;;;;;;;22.36;54.30;99161.29;107173;1257;60501;-39
2023/06/19 04:49:12;;;;;;;16.80;13.10;;;;;;;22.40;54.56;99172.05;107263;1259;60296;-40
2023/06/19 04:51:40;;;;;;;17.20;13.90;;;;;;;22.43;54.65;99169.52;107201;1256;72656;-40
2023/06/19 04:54:08;;;;;;;15.60;12.70;;;;;;;22.46;54.84;99173.42;107242;1260;67572;-40
2023/06/19 04:56:36;;;;;;;15.80;13.30;;;;;;;22.50;54.84;99179.38;107132;1258;71448;-40
2023/06/19 04:59:03;;;;;;;14.60;13.20;;;;;;;22.54;55.15;99184.01;107276;1254;60393;-40
2023/06/19 05:01:31;;;;;;;15.30;13.00;;;;;;;22.56;55.64;99187.64;107259;1259;60265;-40
2023/06/19 05:03:59;;;;;;;15.80;13.40;;;;;;;22.56;55.57;99198.20;107329;1254;73841;-40
2023/06/19 05:06:27;;;;;;;15.40;12.50;;;;;;;22.51;55.88;99202.08;107387;1254;68031;-40
2023/06/19 05:08:54;;;;;;;14.50;12.90;;;;;;;22.46;56.05;99202.39;107249;1260;71285;-40
2023/06/19 05:11:22;;;;;;;14.20;12.70;;;;;;;22.44;56.07;99188.80;107154;1260;60046;-40
2023/06/19 05:13:50;;;;;;;15.90;13.20;;;;;;;22.47;55.90;99190.21;107212;1260;60247;-40
2023/06/19 05:16:19;;;;;;;14.30;12.80;;;;;;;22.50;55.97;99206.30;107273;1260;74138;-40
2023/06/19 05:18:47;;;;;;;;;;;;;;;22.50;55.85;99208.73;107380;1254;67566;-40
2023/06/19 05:21:15;;;;;;;15.10;13.10;;;;;;;22.44;56.16;99198.04;107344;1259;72679;-40
2023/06/19 05:23:43;;;;;;;14.70;13.10;;;;;;;22.43;56.48;99192.79;107177;1256;60391;-40
2023/06/19 05:26:10;;;;;;;17.00;13.90;;;;;;;22.51;56.29;99205.55;107217;1254;60464;-40
2023/06/19 05:28:38;;;;;;;15.80;14.10;;;;;;;22.55;56.27;99213.33;107349;1254;73918;-40
2023/06/19 05:31:05;;;;;;;19.10;14.00;;;;;;;22.54;56.33;99201.83;107392;1260;67624;-40
2023/06/19 05:33:33;;;;;;;15.20;13.60;;;;;;;22.53;56.04;99196.48;107345;1255;72663;-40
2023/06/19 05:36:01;;;;;;;15.60;13.90;;;;;;;22.54;55.89;99207.20;107282;1257;60333;-40
2023/06/19 05:38:30;;;;;;;16.60;14.20;;;;;;;22.53;55.95;99212.35;107342;1254;60389;-40
2023/06/19 05:40:58;;;;;;;16.90;14.40;;;;;;;22.52;56.10;99200.24;107355;1259;72561;-40
2023/06/19 05:43:26;;;;;;;18.50;14.60;;;;;;;22.50;55.53;99189.98;107350;1260;68017;-40
2023/06/19 05:45:55;;;;;;;17.50;14.00;;;;;;;22.52;55.01;99203.55;107387;1254;71832;-40
2023/06/19 05:48:23;;;;;;;22.70;14.80;;;;;;;22.53;56.08;99213.52;107439;1259;60537;-40
2023/06/19 05:50:52;;;;;;;21.30;16.40;;;;;;;22.53;56.44;99205.80;107275;1257;60265;-39
2023/06/19 05:53:19;;;;;;;19.40;17.40;;;;;;;22.53;57.08;99204.78;107268;1257;73875;-39
2023/06/19 05:55:47;;;;;;;20.30;17.30;;;;;;;22.54;57.38;99203.16;107221;1260;68329;-41
2023/06/19 05:58:15;;;;;;;18.90;16.80;;;;;;;22.52;57.42;99206.14;107195;1257;71875;-40
2023/06/19 06:00:43;;;;;;;20.70;17.70;;;;;;;22.50;56.96;99213.25;107242;1257;60342;-40
2023/06/19 06:03:10;;;;;;;23.00;18.90;;;;;;;22.49;58.30;99211.94;107241;1254;60483;-41
2023/06/19 06:05:38;;;;;;;20.10;18.10;;;;;;;22.52;58.92;99207.11;107150;1257;73870;-40
2023/06/19 06:08:06;;;;;;;24.00;17.90;;;;;;;22.59;58.75;99207.90;107205;1258;68027;-40
2023/06/19 06:10:34;;;;;;;19.60;17.40;;;;;;;22.62;58.49;99216.88;107224;1258;72535;-40
2023/06/19 06:13:01;;;;;;;21.30;19.10;;;;;;;22.61;59.08;99215.96;107205;1260;60104;-39
2023/06/19 06:15:29;;;;;;;21.20;19.00;;;;;;;22.61;58.90;99215.17;107144;1257;60342;-39
2023/06/19 06:17:57;;;;;;;20.80;18.80;;;;;;;22.59;58.72;99214.78;107143;1257;73887;-40
2023/06/19 06:20:25;;;;;;;21.10;18.80;;;;;;;22.59;58.82;99226.23;107250;1257;67921;-40
2023/06/19 06:22:53;;;;;;;26.80;19.30;;;;;;;22.62;58.92;99237.02;107217;1258;73149;-40
2023/06/19 06:25:20;;;;;;;22.80;19.40;;;;;;;22.64;59.00;99238.21;107284;1257;60565;-40
2023/06/19 06:27:48;;;;;;;22.40;19.90;;;;;;;22.66;58.71;99228.04;107383;1254;60040;-40
2023/06/19 06:30:16;;;;;;;22.60;19.80;;;;;;;22.68;58.64;99228.13;107352;1259;72165;-40
2023/06/19 06:32:46;;;;;;;23.30;19.10;;;;;;;22.70;58.53;99224.84;107338;1254;67874;-40
2023/06/19 06:35:15;;;;;;;22.30;19.90;;;;;;;22.69;59.02;99218.23;107202;1257;72675;-41
2023/06/19 06:37:44;;;;;;;20.00;18.10;;;;;;;22.72;59.49;99210.44;107231;1257;61659;-40
2023/06/19 06:40:12;;;;;;;21.20;19.10;;;;;;;22.74;59.36;99204.99;107334;1257;60386;-40
2023/06/19 06:42:39;;;;;;;22.10;19.60;;;;;;;22.74;59.16;99204.44;107265;1257;73931;-40
2023/06/19 06:45:08;;;;;;;26.40;20.70;;;;;;;22.74;58.89;99212.23;107336;1257;66477;-40
2023/06/19 06:47:35;;;;;;;24.90;22.20;;;;;;;22.75;58.84;99221.38;107257;1257;71464;-40
2023/06/19 06:50:04;;;;;;;24.20;21.60;;;;;;;22.75;58.94;99226.66;107354;1257;60393;-40
2023/06/19 06:52:31;;;;;;;24.00;21.40;;;;;;;22.80;59.37;99224.31;107246;1257;60356;-40
2023/06/19 06:54:59;;;;;;;25.70;23.00;;;;;;;22.87;59.55;99223.98;107263;1255;74196;-40
2023/06/19 06:57:27;;;;;;;25.00;22.30;;;;;;;22.90;59.75;99213.70;107280;1257;66356;-40
2023/06/19 06:59:54;;;;;;;27.00;24.20;;;;;;;22.91;59.40;99213.42;107335;1257;71372;-40
2023/06/19 07:02:22;;;;;;;24.00;21.50;;;;;;;22.90;59.59;99217.17;107203;1257;61083;-40
2023/06/19 07:04:50;;;;;;;23.80;21.00;;;;;;;22.92;59.32;99219.15;107108;1255;60054;-40
2023/06/19 07:07:17;;;;;;;21.80;19.40;;;;;;;22.96;59.22;99219.80;107155;1257;72560;-40
2023/06/19 07:09:45;;;;;;;21.30;19.00;;;;;;;23.04;58.99;99216.23;107123;1257;67891;-40
2023/06/19 07:12:13;;;;;;;22.70;20.30;;;;;;;23.11;58.48;99220.96;107234;1257;73150;-40
2023/06/19 07:14:40;;;;;;;23.60;21.30;;;;;;;23.17;58.47;99222.48;107389;1258;60307;-40
2023/06/19 07:17:08;;;;;;;24.60;20.80;;;;;;;23.25;58.31;99225.13;107398;1257;60419;-40
2023/06/19 07:19:36;;;;;;;23.80;21.50;;;;;;;23.37;58.14;99230.87;107363;1257;73865;-40
2023/06/19 07:22:04;;;;;;;24.30;21.80;;;;;;;23.45;57.76;99227.70;107276;1257;67594;-40
2023/06/19 07:24:32;;;;;;;25.30;22.70;;;;;;;23.52;57.43;99232.14;107282;1257;71459;-40
2023/06/19 07:26:59;;;;;;;25.60;22.80;;;;;;;23.56;57.22;99233.86;107186;1256;60424;-40
2023/06/19 07:29:27;;;;;;;24.70;22.30;;;;;;;23.63;57.18;99228.81;107300;1254;60105;-40
2023/06/19 07:31:55;;;;;;;25.70;23.00;;;;;;;23.71;57.05;99231.73;107354;1257;73860;-41
2023/06/19 07:34:23;;;;;;;24.60;22.20;;;;;;;23.80;56.72;99231.64;107377;1257;67194;-40
2023/06/19 07:36:51;;;;;;;25.70;23.20;;;;;;;23.91;56.63;99232.14;107256;1261;72480;-41
2023/06/19 07:39:19;;;;;;;30.00;23.60;;;;;;;24.02;56.27;99223.15;107246;1257;60411;-41
2023/06/19 07:41:46;;;;;;;25.50;22.70;;;;;;;24.14;56.19;99225.16;107284;1258;60306;-40
2023/06/19 07:44:17;;;;;;;25.00;22.40;;;;;;;24.28;56.19;99228.11;107271;1254;73661;-40
2023/06/19 07:46:45;;;;;;;27.50;24.30;;;;;;;24.41;56.00;99222.46;107388;1254;67608;-40
2023/06/19 07:49:12;;;;;;;25.50;22.80;;;;;;;24.51;55.93;99224.75;107313;1254;72684;-40
2023/06/19 07:51:40;;;;;;;26.40;23.80;;;;;;;24.62;55.77;99225.56;107283;1257;60523;-40
2023/06/19 07:54:07;;;;;;;27.20;24.40;;;;;;;24.74;55.98;99226.05;107205;1254;60465;-40
2023/06/19 07:56:35;;;;;;;26.40;23.90;;;;;;;24.87;56.30;99226.01;107321;1254;73047;-40
2023/06/19 07:59:03;;;;;;;26.60;24.00;;;;;;;25.01;55.80;99226.52;107320;1254;67904;-40
2023/06/19 08:01:32;;;;;;;;;;;;;;;25.15;54.66;99227.44;107328;1254;73031;-40
2023/06/19 08:04:00;;;;;;;24.80;22.40;;;;;;;25.22;53.92;99229.30;107359;1254;59212;-40
2023/06/19 08:06:31;;;;;;;25.30;22.60;;;;;;;25.29;53.37;99226.73;107258;1254;60437;-40
2023/06/19 08:08:59;;;;;;;26.40;23.60;;;;;;;25.39;52.58;99219.79;107447;1255;74832;-39
2023/06/19 08:11:26;;;;;;;26.20;23.70;;;;;;;25.52;52.60;99224.02;107257;1254;66748;-39
2023/06/19 08:13:54;;;;;;;24.40;22.00;;;;;;;25.65;51.71;99220.23;107340;1254;72744;-40
2023/06/19 08:16:22;;;;;;;23.20;20.90;;;;;;;25.76;51.23;99220.64;107237;1258;60502;-40
2023/06/19 08:18:49;;;;;;;23.50;21.30;;;;;;;25.91;50.85;99226.48;107123;1254;60514;-40
2023/06/19 08:21:17;;;;;;;27.60;22.90;;;;;;;26.09;50.81;99233.04;107189;1257;72645;-40
2023/06/19 08:23:45;;;;;;;25.90;21.20;;;;;;;26.28;50.55;99234.14;107312;1254;67671;-40
2023/06/19 08:26:12;;;;;;;23.70;21.20;;;;;;;26.49;49.69;99238.69;107360;1254;72698;-40
2023/06/19 08:28:41;;;;;;;23.40;20.70;;;;;;;26.69;48.37;99242.19;107350;1254;60358;-40
2023/06/19 08:31:10;;;;;;;24.10;21.60;;;;;;;26.87;47.91;99235.36;107384;1254;60325;-40
2023/06/19 08:33:37;;;;;;;23.40;20.90;;;;;;;26.99;47.39;99235.58;107382;1254;73863;-39
2023/06/19 08:36:05;;;;;;;23.80;21.40;;;;;;;27.12;47.73;99234.39;107334;1254;66738;-40
2023/06/19 08:38:33;;;;;;;24.00;21.70;;;;;;;27.28;47.67;99233.54;107473;1254;74044;-40
2023/06/19 08:41:00;;;;;;;22.10;19.90;;;;;;;27.39;46.79;99234.57;107285;1257;60280;-40
2023/06/19 08:43:28;;;;;;;23.10;20.60;;;;;;;27.45;46.64;99237.58;107316;1257;62425;-41
2023/06/19 08:46:07;;;;;;;24.10;19.60;;;;;;;27.51;46.12;99236.69;107228;1254;73876;-40
2023/06/19 08:48:38;;;;;;;22.60;19.20;;;;;;;27.61;46.44;99240.29;107292;1259;66609;-40
2023/06/19 08:51:06;;;;;;;21.90;19.50;;;;;;;27.76;46.08;99237.11;106952;1254;373432;-40
2023/06/19 08:55:51;;;;;;;22.30;17.60;;;;;;;27.98;44.33;99233.60;104121;1292;600278;-39
2023/06/19 08:58:23;;;;;;;20.30;18.30;;;;;;;28.05;43.63;99235.10;106663;1267;60454;-39
2023/06/19 09:00:50;;;;;;;18.50;16.60;;;;;;;28.13;43.34;99234.63;106525;1271;59148;-40
2023/06/19 09:03:22;;;;;;;20.10;18.00;;;;;;;28.17;42.95;99232.42;106975;1260;72349;-40
2023/06/19 09:05:50;;;;;;;17.50;15.80;;;;;;;28.18;42.88;99232.63;106968;1259;68668;-39
2023/06/19 09:08:19;;;;;;;;;;;;;;;28.16;42.68;99236.47;106727;1265;334450;-40
2023/06/19 09:11:02;;;;;;;18.70;17.00;;;;;;;28.08;42.64;99237.48;107021;1257;60083;-41
2023/06/19 09:13:31;;;;;;;19.60;17.40;;;;;;;28.02;42.73;99233.73;107080;1257;61025;-40
2023/06/19 09:16:05;;;;;;;19.10;17.20;;;;;;;28.04;43.12;99236.54;107161;1256;70948;-40
2023/06/19 09:18:44;;;;;;;23.40;15.80;;;;;;;28.08;42.59;99231.52;107196;1257;68312;-40
2023/06/19 09:21:21;;;;;;;17.90;14.30;;;;;;;28.18;41.76;99228.59;107249;1257;72695;-40
2023/06/19 09:23:51;;;;;;;17.60;14.90;;;;;;;28.27;41.18;99227.57;107183;1257;60204;-40
2023/06/19 09:26:26;;;;;;;17.20;14.60;;;;;;;28.38;41.24;99227.43;107061;1256;59522;-39
2023/06/19 09:28:53;;;;;;;14.90;13.30;;;;;;;28.49;40.33;99225.02;107027;1257;73385;-40
2023/06/19 09:31:31;;;;;;;14.60;13.00;;;;;;;28.59;39.64;99223.99;107220;1257;67052;-39
2023/06/19 09:33:59;;;;;;;16.50;14.70;;;;;;;28.70;39.73;99223.77;107069;1257;71390;-40
2023/06/19 09:36:27;;;;;;;14.60;13.10;;;;;;;28.75;39.82;99223.23;107021;1257;60095;-40
2023/06/19 09:38:55;;;;;;;14.10;12.70;;;;;;;28.78;39.11;99219.64;107165;1257;60028;-40
2023/06/19 09:41:24;;;;;;;14.80;13.30;;;;;;;28.79;39.61;99218.73;106954;1257;71062;-40
2023/06/19 09:43:54;;;;;;;15.00;13.50;;;;;;;28.76;40.56;99215.09;107216;1257;67889;-40
2023/06/19 09:46:22;;;;;;;17.40;14.40;;;;;;;28.80;40.55;99216.27;107201;1256;73131;-39
2023/06/19 09:48:50;;;;;;;15.70;13.70;;;;;;;28.84;40.19;99219.15;107094;1257;60568;-40
2023/06/19 09:51:23;;;;;;;15.00;13.50;;;;;;;28.98;40.45;99213.80;107140;1257;60141;-40
2023/06/19 09:53:53;;;;;;;15.60;13.90;;;;;;;29.22;40.24;99212.16;107188;1257;73046;-40
2023/06/19 09:56:21;;;;;;;17.50;13.00;;;;;;;29.40;40.60;99210.58;107028;1258;67919;-39
2023/06/19 09:58:51;;;;;;;14.50;13.00;;;;;;;29.63;39.80;99209.18;107283;1257;72790;-40
2023/06/19 10:01:19;;;;;;;13.30;12.00;;;;;;;29.86;38.80;99209.52;107245;1257;60866;-40
2023/06/19 10:03:46;;;;;;;15.00;10.70;;;;;;;29.99;37.27;99206.59;107210;1257;60082;-39
2023/06/19 10:06:16;;;;;;;12.30;11.00;;;;;;;29.96;36.66;99204.84;107176;1257;71844;-40
2023/06/19 10:08:44;;;;;;;12.70;11.10;;;;;;;29.95;35.93;99199.25;107315;1256;66293;-40
2023/06/19 10:11:12;;;;;;;13.30;10.40;;;;;;;29.85;35.91;99202.73;107236;1256;72712;-40
2023/06/19 10:13:41;;;;;;;13.40;10.60;;;;;;;29.77;36.59;99205.66;107239;1257;59634;-39
2023/06/19 10:16:19;;;;;;;13.70;12.30;;;;;;;29.84;36.76;99201.05;107271;1257;59509;-40
2023/06/19 10:18:48;;;;;;;14.40;12.60;;;;;;;30.00;37.57;99194.95;107297;1257;73351;-40
2023/06/19 10:21:19;;;;;;;12.80;11.50;;;;;;;30.15;37.31;99193.41;107268;1256;67892;-40
2023/06/19 10:23:57;;;;;;;13.00;11.70;;;;;;;30.28;36.22;99191.36;107279;1259;72699;-39
2023/06/19 10:26:34;;;;;;;13.90;11.70;;;;;;;30.29;35.68;99190.72;107281;1258;60110;-40
2023/06/19 10:29:13;;;;;;;12.00;10.70;;;;;;;30.30;35.97;99190.06;107226;1257;60566;-40
2023/06/19 10:31:41;;;;;;;12.00;10.80;;;;;;;30.38;36.87;99185.28;107291;1257;71212;-40
2023/06/19 10:34:08;;;;;;;11.90;10.80;;;;;;;30.55;36.37;99181.38;107206;1257;66616;-40
2023/06/19 10:36:36;;;;;;;13.00;11.70;;;;;;;30.79;36.80;99182.08;107145;1257;72691;-41
2023/06/19 10:39:04;;;;;;;13.20;11.90;;;;;;;30.95;36.82;99184.69;107069;1257;59612;-41
2023/06/19 10:41:32;;;;;;;13.20;11.20;;;;;;;31.07;36.54;99183.35;107227;1257;60211;-41
2023/06/19 10:44:04;;;;;;;13.30;11.90;;;;;;;31.13;36.65;99179.59;107145;1259;73062;-41
2023/06/19 10:46:33;;;;;;;12.70;11.40;;;;;;;31.14;36.82;99173.70;107240;1256;66610;-41
2023/06/19 10:49:03;;;;;;;;;;;;;;;31.24;36.43;99172.55;107236;1256;72704;-41
2023/06/19 10:51:31;;;;;;;;;;;;;;;31.35;36.17;99169.27;107284;1256;59497;-41
2023/06/19 10:53:59;;;;;;;13.50;11.20;;;;;;;31.49;35.54;99163.80;107170;1257;59519;-41
2023/06/19 10:56:26;;;;;;;12.40;11.20;;;;;;;31.77;35.01;99163.85;107261;1263;73050;-41
2023/06/19 10:59:01;;;;;;;13.80;10.80;;;;;;;32.12;34.25;99158.20;107169;1257;68053;-41
2023/06/19 11:01:34;;;;;;;12.10;11.00;;;;;;;32.50;33.85;99161.35;107146;1256;72722;-41
2023/06/19 11:04:03;;;;;;;13.90;11.30;;;;;;;32.86;33.27;99154.72;107256;1257;59668;-41
2023/06/19 11:06:32;;;;;;;13.60;12.30;;;;;;;33.21;32.53;99154.41;107192;1256;60496;-41
2023/06/19 11:09:04;;;;;;;13.10;11.20;;;;;;;33.49;32.22;99156.48;107324;1258;72326;-41
2023/06/19 11:11:35;;;;;;;16.20;12.30;;;;;;;33.80;31.84;99155.67;107195;1257;67576;-40
2023/06/19 11:14:03;;;;;;;14.30;11.80;;;;;;;34.12;31.66;99160.84;107276;1258;71561;-41
2023/06/19 11:16:32;;;;;;;14.20;12.30;;;;;;;34.42;31.13;99161.05;107324;1257;60114;-41
2023/06/19 11:19:00;;;;;;;16.80;11.90;;;;;;;34.68;30.72;99159.19;107269;1260;59510;-41
2023/06/19 11:21:37;;;;;;;14.60;10.80;;;;;;;34.86;30.55;99164.31;107259;1256;72703;-41
2023/06/19 11:24:14;;;;;;;13.40;11.40;;;;;;;34.98;30.85;99167.29;107286;1257;67636;-41